sensor_id;sensor_type;location;lat;lon;timestamp;temperature;humidity
54260;DHT22;40172;53.022;7.012;2023-10-13T00:01:57;14.30;99.90
54260;DHT22;40172;53.022;7.012;2023-10-13T00:04:27;14.00;99.90
54260;DHT22;40172;53.022;7.012;2023-10-13T00:06:53;14.10;99.90
54260;DHT22;40172;53.022;7.012;2023-10-13T00:09:23;14.40;99.90
54260;DHT22;40172;53.022;7.012;2023-10-13T00:11:52;14.60;99.90
54260;DHT22;40172;53.022;7.012;2023-10-13T00:14:19;14.70;99.90
54260;DHT22;40172;53.022;7.012;2023-10-13T00:16:47;14.60;99.90
54260;DHT22;40172;53.022;7.012;2023-10-13T00:19:29;14.80;99.90
54260;DHT22;40172;53.022;7.012;2023-10-13T00:22:06;14.50;99.90
54260;DHT22;40172;53.022;7.012;2023-10-13T00:24:37;14.90;99.90
54260;DHT22;40172;53.022;7.012;2023-10-13T00:27:19;14.70;99.90
54260;DHT22;40172;53.022;7.012;2023-10-13T00:30:05;14.70;99.90
54260;DHT22;40172;53.022;7.012;2023-10-13T00:33:10;15.50;99.90
54260;DHT22;40172;53.022;7.012;2023-10-13T00:35:36;15.10;99.90
54260;DHT22;40172;53.022;7.012;2023-10-13T00:38:03;15.30;99.90
54260;DHT22;40172;53.022;7.012;2023-10-13T00:43:32;15.50;99.90
54260;DHT22;40172;53.022;7.012;2023-10-13T00:46:01;15.10;99.90
54260;DHT22;40172;53.022;7.012;2023-10-13T00:48:36;15.20;99.90
54260;DHT22;40172;53.022;7.012;2023-10-13T00:51:09;17.50;99.90
54260;DHT22;40172;53.022;7.012;2023-10-13T00:53:44;15.40;99.90
54260;DHT22;40172;53.022;7.012;2023-10-13T00:56:12;15.20;99.90
54260;DHT22;40172;53.022;7.012;2023-10-13T00:58:55;15.30;99.90
54260;DHT22;40172;53.022;7.012;2023-10-13T01:01:23;15.80;99.90
54260;DHT22;40172;53.022;7.012;2023-10-13T01:03:55;15.40;99.90
54260;DHT22;40172;53.022;7.012;2023-10-13T01:06:37;15.40;99.90
54260;DHT22;40172;53.022;7.012;2023-10-13T01:11:47;15.80;99.90
54260;DHT22;40172;53.022;7.012;2023-10-13T01:14:19;16.00;99.90
54260;DHT22;40172;53.022;7.012;2023-10-13T01:16:47;15.00;99.90
54260;DHT22;40172;53.022;7.012;2023-10-13T01:19:17;15.60;99.90
54260;DHT22;40172;53.022;7.012;2023-10-13T01:21:45;15.60;99.90
54260;DHT22;40172;53.022;7.012;2023-10-13T01:24:10;15.60;99.90
54260;DHT22;40172;53.022;7.012;2023-10-13T01:26:39;15.70;99.90
54260;DHT22;40172;53.022;7.012;2023-10-13T01:29:06;15.70;99.90
54260;DHT22;40172;53.022;7.012;2023-10-13T01:31:43;15.60;99.90
54260;DHT22;40172;53.022;7.012;2023-10-13T01:34:16;15.70;99.90
54260;DHT22;40172;53.022;7.012;2023-10-13T01:36:48;15.80;99.90
54260;DHT22;40172;53.022;7.012;2023-10-13T01:39:16;15.60;99.90
54260;DHT22;40172;53.022;7.012;2023-10-13T01:41:43;15.70;99.90
54260;DHT22;40172;53.022;7.012;2023-10-13T01:44:09;15.90;99.90
54260;DHT22;40172;53.022;7.012;2023-10-13T01:46:40;15.80;99.90
54260;DHT22;40172;53.022;7.012;2023-10-13T01:49:08;15.70;99.90
54260;DHT22;40172;53.022;7.012;2023-10-13T01:51:34;15.60;99.90
54260;DHT22;40172;53.022;7.012;2023-10-13T01:53:59;15.70;99.90
54260;DHT22;40172;53.022;7.012;2023-10-13T01:56:28;15.60;99.90
54260;DHT22;40172;53.022;7.012;2023-10-13T01:58:56;15.80;99.90
54260;DHT22;40172;53.022;7.012;2023-10-13T02:01:22;15.60;99.90
54260;DHT22;40172;53.022;7.012;2023-10-13T02:03:57;15.60;99.90
54260;DHT22;40172;53.022;7.012;2023-10-13T02:06:33;15.90;99.90
54260;DHT22;40172;53.022;7.012;2023-10-13T02:09:00;15.70;99.90
54260;DHT22;40172;53.022;7.012;2023-10-13T02:11:51;15.80;99.90
54260;DHT22;40172;53.022;7.012;2023-10-13T02:14:21;15.70;99.90
54260;DHT22;40172;53.022;7.012;2023-10-13T02:16:51;15.70;99.90
54260;DHT22;40172;53.022;7.012;2023-10-13T02:19:21;16.00;99.90
54260;DHT22;40172;53.022;7.012;2023-10-13T02:21:48;15.80;99.90
54260;DHT22;40172;53.022;7.012;2023-10-13T02:24:24;15.90;99.90
54260;DHT22;40172;53.022;7.012;2023-10-13T02:26:56;16.20;99.90
54260;DHT22;40172;53.022;7.012;2023-10-13T02:29:28;15.70;99.90
54260;DHT22;40172;53.022;7.012;2023-10-13T02:31:53;15.70;99.90
54260;DHT22;40172;53.022;7.012;2023-10-13T02:34:22;15.80;99.90
54260;DHT22;40172;53.022;7.012;2023-10-13T02:36:49;15.80;99.90
54260;DHT22;40172;53.022;7.012;2023-10-13T02:39:15;16.00;99.90
54260;DHT22;40172;53.022;7.012;2023-10-13T02:41:42;15.70;99.90
54260;DHT22;40172;53.022;7.012;2023-10-13T02:44:14;15.80;99.90
54260;DHT22;40172;53.022;7.012;2023-10-13T02:46:59;15.90;99.90
54260;DHT22;40172;53.022;7.012;2023-10-13T02:49:28;16.00;99.90
54260;DHT22;40172;53.022;7.012;2023-10-13T02:51:59;15.90;99.90
54260;DHT22;40172;53.022;7.012;2023-10-13T02:54:30;15.90;99.90
54260;DHT22;40172;53.022;7.012;2023-10-13T02:56:57;15.90;99.90
54260;DHT22;40172;53.022;7.012;2023-10-13T02:59:26;15.90;99.90
54260;DHT22;40172;53.022;7.012;2023-10-13T03:02:15;16.60;99.90
54260;DHT22;40172;53.022;7.012;2023-10-13T03:04:50;16.40;99.90
54260;DHT22;40172;53.022;7.012;2023-10-13T03:07:15;15.90;99.90
54260;DHT22;40172;53.022;7.012;2023-10-13T03:09:47;15.90;99.90
54260;DHT22;40172;53.022;7.012;2023-10-13T03:12:16;16.40;99.90
54260;DHT22;40172;53.022;7.012;2023-10-13T03:14:43;17.50;99.90
54260;DHT22;40172;53.022;7.012;2023-10-13T03:17:13;15.70;99.90
54260;DHT22;40172;53.022;7.012;2023-10-13T03:19:45;15.90;99.90
54260;DHT22;40172;53.022;7.012;2023-10-13T03:22:17;15.80;99.90
54260;DHT22;40172;53.022;7.012;2023-10-13T03:24:44;16.00;99.90
54260;DHT22;40172;53.022;7.012;2023-10-13T03:27:17;16.10;99.90
54260;DHT22;40172;53.022;7.012;2023-10-13T03:29:48;15.90;99.90
54260;DHT22;40172;53.022;7.012;2023-10-13T03:32:20;15.70;99.90
54260;DHT22;40172;53.022;7.012;2023-10-13T03:34:46;16.10;99.90
54260;DHT22;40172;53.022;7.012;2023-10-13T03:37:32;16.10;99.90
54260;DHT22;40172;53.022;7.012;2023-10-13T03:42:41;16.20;99.90
54260;DHT22;40172;53.022;7.012;2023-10-13T03:45:07;18.00;99.90
54260;DHT22;40172;53.022;7.012;2023-10-13T03:47:36;16.40;99.90
54260;DHT22;40172;53.022;7.012;2023-10-13T03:50:05;15.90;99.90
54260;DHT22;40172;53.022;7.012;2023-10-13T03:52:55;16.40;99.90
54260;DHT22;40172;53.022;7.012;2023-10-13T03:55:24;16.10;99.90
54260;DHT22;40172;53.022;7.012;2023-10-13T03:57:52;15.80;99.90
54260;DHT22;40172;53.022;7.012;2023-10-13T04:00:20;15.80;99.90
54260;DHT22;40172;53.022;7.012;2023-10-13T04:02:51;18.30;99.90
54260;DHT22;40172;53.022;7.012;2023-10-13T04:05:35;15.80;99.90
54260;DHT22;40172;53.022;7.012;2023-10-13T04:08:06;16.20;99.90
54260;DHT22;40172;53.022;7.012;2023-10-13T04:10:52;15.80;99.90
54260;DHT22;40172;53.022;7.012;2023-10-13T04:13:18;15.90;99.90
54260;DHT22;40172;53.022;7.012;2023-10-13T04:16:07;15.90;99.90
54260;DHT22;40172;53.022;7.012;2023-10-13T04:18:49;15.90;99.90
54260;DHT22;40172;53.022;7.012;2023-10-13T04:21:22;16.10;99.90
54260;DHT22;40172;53.022;7.012;2023-10-13T04:24:09;15.70;99.90
54260;DHT22;40172;53.022;7.012;2023-10-13T04:26:54;16.30;99.90
54260;DHT22;40172;53.022;7.012;2023-10-13T04:29:39;15.80;99.90
54260;DHT22;40172;53.022;7.012;2023-10-13T04:32:36;15.70;99.90
54260;DHT22;40172;53.022;7.012;2023-10-13T04:35:07;15.70;99.90
54260;DHT22;40172;53.022;7.012;2023-10-13T04:37:38;16.30;99.90
54260;DHT22;40172;53.022;7.012;2023-10-13T04:40:24;15.60;99.90
54260;DHT22;40172;53.022;7.012;2023-10-13T04:42:54;15.80;99.90
54260;DHT22;40172;53.022;7.012;2023-10-13T04:45:25;15.90;99.90
54260;DHT22;40172;53.022;7.012;2023-10-13T04:47:58;16.40;99.90
54260;DHT22;40172;53.022;7.012;2023-10-13T04:50:44;15.90;99.90
54260;DHT22;40172;53.022;7.012;2023-10-13T04:53:14;15.60;99.90
54260;DHT22;40172;53.022;7.012;2023-10-13T04:55:56;15.80;99.90
54260;DHT22;40172;53.022;7.012;2023-10-13T04:58:28;17.50;99.90
54260;DHT22;40172;53.022;7.012;2023-10-13T05:01:12;15.80;99.90
54260;DHT22;40172;53.022;7.012;2023-10-13T05:03:50;15.90;99.90
54260;DHT22;40172;53.022;7.012;2023-10-13T05:06:47;15.40;99.90
54260;DHT22;40172;53.022;7.012;2023-10-13T05:09:31;16.20;99.90
54260;DHT22;40172;53.022;7.012;2023-10-13T05:12:15;18.20;99.90
54260;DHT22;40172;53.022;7.012;2023-10-13T05:15:02;17.10;99.90
54260;DHT22;40172;53.022;7.012;2023-10-13T05:17:47;16.20;99.90
54260;DHT22;40172;53.022;7.012;2023-10-13T05:20:31;15.40;99.90
54260;DHT22;40172;53.022;7.012;2023-10-13T05:23:15;15.40;99.90
54260;DHT22;40172;53.022;7.012;2023-10-13T05:26:01;15.10;99.90
54260;DHT22;40172;53.022;7.012;2023-10-13T05:28:45;16.30;99.90
54260;DHT22;40172;53.022;7.012;2023-10-13T05:31:29;15.70;99.90
54260;DHT22;40172;53.022;7.012;2023-10-13T05:34:13;15.80;99.90
54260;DHT22;40172;53.022;7.012;2023-10-13T05:36:58;15.90;99.90
54260;DHT22;40172;53.022;7.012;2023-10-13T05:39:42;15.60;99.90
54260;DHT22;40172;53.022;7.012;2023-10-13T05:42:26;15.40;99.90
54260;DHT22;40172;53.022;7.012;2023-10-13T05:45:13;16.60;99.90
54260;DHT22;40172;53.022;7.012;2023-10-13T05:47:44;16.10;99.90
54260;DHT22;40172;53.022;7.012;2023-10-13T05:50:13;16.00;99.90
54260;DHT22;40172;53.022;7.012;2023-10-13T05:52:48;16.20;99.90
54260;DHT22;40172;53.022;7.012;2023-10-13T05:55:26;15.90;99.90
54260;DHT22;40172;53.022;7.012;2023-10-13T05:58:11;15.80;99.90
54260;DHT22;40172;53.022;7.012;2023-10-13T06:00:55;17.60;99.90
54260;DHT22;40172;53.022;7.012;2023-10-13T06:03:39;15.90;99.90
54260;DHT22;40172;53.022;7.012;2023-10-13T06:06:23;15.70;99.90
54260;DHT22;40172;53.022;7.012;2023-10-13T06:09:08;15.70;99.90
54260;DHT22;40172;53.022;7.012;2023-10-13T06:11:52;15.40;99.90
54260;DHT22;40172;53.022;7.012;2023-10-13T06:14:37;15.80;99.90
54260;DHT22;40172;53.022;7.012;2023-10-13T06:17:21;17.80;99.90
54260;DHT22;40172;53.022;7.012;2023-10-13T06:20:07;16.30;99.90
54260;DHT22;40172;53.022;7.012;2023-10-13T06:22:51;16.00;99.90
54260;DHT22;40172;53.022;7.012;2023-10-13T06:25:35;15.90;99.90
54260;DHT22;40172;53.022;7.012;2023-10-13T06:28:20;15.90;99.90
54260;DHT22;40172;53.022;7.012;2023-10-13T06:31:05;16.70;99.90
54260;DHT22;40172;53.022;7.012;2023-10-13T06:33:36;17.80;99.90
54260;DHT22;40172;53.022;7.012;2023-10-13T06:36:09;15.90;99.90
54260;DHT22;40172;53.022;7.012;2023-10-13T06:38:35;15.60;99.90
54260;DHT22;40172;53.022;7.012;2023-10-13T06:41:04;15.70;99.90
54260;DHT22;40172;53.022;7.012;2023-10-13T06:43:33;15.50;99.90
54260;DHT22;40172;53.022;7.012;2023-10-13T06:46:08;17.60;99.90
54260;DHT22;40172;53.022;7.012;2023-10-13T06:48:40;15.80;99.90
54260;DHT22;40172;53.022;7.012;2023-10-13T06:51:06;15.50;99.90
54260;DHT22;40172;53.022;7.012;2023-10-13T06:53:44;16.00;99.90
54260;DHT22;40172;53.022;7.012;2023-10-13T06:56:13;17.20;99.90
54260;DHT22;40172;53.022;7.012;2023-10-13T06:58:43;16.00;99.90
54260;DHT22;40172;53.022;7.012;2023-10-13T07:01:09;15.90;99.90
54260;DHT22;40172;53.022;7.012;2023-10-13T07:03:41;15.80;99.90
54260;DHT22;40172;53.022;7.012;2023-10-13T07:06:07;16.30;99.90
54260;DHT22;40172;53.022;7.012;2023-10-13T07:08:37;16.70;99.90
54260;DHT22;40172;53.022;7.012;2023-10-13T07:11:03;15.50;99.90
54260;DHT22;40172;53.022;7.012;2023-10-13T07:13:38;16.10;99.90
54260;DHT22;40172;53.022;7.012;2023-10-13T07:16:05;15.90;99.90
54260;DHT22;40172;53.022;7.012;2023-10-13T07:18:38;16.50;99.90
54260;DHT22;40172;53.022;7.012;2023-10-13T07:21:17;16.10;99.90
54260;DHT22;40172;53.022;7.012;2023-10-13T07:23:49;16.40;99.90
54260;DHT22;40172;53.022;7.012;2023-10-13T07:26:26;16.50;99.90
54260;DHT22;40172;53.022;7.012;2023-10-13T07:28:53;16.50;99.90
54260;DHT22;40172;53.022;7.012;2023-10-13T07:31:19;16.30;99.90
54260;DHT22;40172;53.022;7.012;2023-10-13T07:33:46;16.70;99.90
54260;DHT22;40172;53.022;7.012;2023-10-13T07:36:12;17.00;99.90
54260;DHT22;40172;53.022;7.012;2023-10-13T07:38:47;16.50;99.90
54260;DHT22;40172;53.022;7.012;2023-10-13T07:41:14;16.90;99.90
54260;DHT22;40172;53.022;7.012;2023-10-13T07:43:41;16.50;99.90
54260;DHT22;40172;53.022;7.012;2023-10-13T07:46:07;16.40;99.90
54260;DHT22;40172;53.022;7.012;2023-10-13T07:48:40;16.30;99.90
54260;DHT22;40172;53.022;7.012;2023-10-13T07:51:09;16.40;99.90
54260;DHT22;40172;53.022;7.012;2023-10-13T07:53:40;16.80;99.90
54260;DHT22;40172;53.022;7.012;2023-10-13T07:56:06;16.30;99.90
54260;DHT22;40172;53.022;7.012;2023-10-13T07:58:40;18.30;99.90
54260;DHT22;40172;53.022;7.012;2023-10-13T08:01:21;16.50;99.90
54260;DHT22;40172;53.022;7.012;2023-10-13T08:03:47;16.50;99.90
54260;DHT22;40172;53.022;7.012;2023-10-13T08:06:13;15.40;99.90
54260;DHT22;40172;53.022;7.012;2023-10-13T08:08:40;16.60;99.90
54260;DHT22;40172;53.022;7.012;2023-10-13T08:11:06;16.70;99.90
54260;DHT22;40172;53.022;7.012;2023-10-13T08:13:50;16.40;99.90
54260;DHT22;40172;53.022;7.012;2023-10-13T08:16:19;16.50;99.90
54260;DHT22;40172;53.022;7.012;2023-10-13T08:18:48;15.70;99.90
54260;DHT22;40172;53.022;7.012;2023-10-13T08:21:15;16.00;99.90
54260;DHT22;40172;53.022;7.012;2023-10-13T08:23:44;16.50;99.90
54260;DHT22;40172;53.022;7.012;2023-10-13T08:26:19;16.00;99.90
54260;DHT22;40172;53.022;7.012;2023-10-13T08:29:04;16.60;99.90
54260;DHT22;40172;53.022;7.012;2023-10-13T08:31:50;16.80;99.90
54260;DHT22;40172;53.022;7.012;2023-10-13T08:34:34;16.30;99.90
54260;DHT22;40172;53.022;7.012;2023-10-13T08:37:05;18.70;99.90
54260;DHT22;40172;53.022;7.012;2023-10-13T08:39:48;16.60;99.90
54260;DHT22;40172;53.022;7.012;2023-10-13T08:42:29;16.10;99.90
54260;DHT22;40172;53.022;7.012;2023-10-13T08:45:11;16.40;99.90
54260;DHT22;40172;53.022;7.012;2023-10-13T08:47:47;16.60;99.90
54260;DHT22;40172;53.022;7.012;2023-10-13T08:50:22;16.50;99.90
54260;DHT22;40172;53.022;7.012;2023-10-13T08:53:29;16.90;99.90
54260;DHT22;40172;53.022;7.012;2023-10-13T08:56:11;16.80;99.90
54260;DHT22;40172;53.022;7.012;2023-10-13T09:01:18;16.80;99.90
54260;DHT22;40172;53.022;7.012;2023-10-13T09:04:09;16.60;99.90
54260;DHT22;40172;53.022;7.012;2023-10-13T09:06:51;18.20;99.90
54260;DHT22;40172;53.022;7.012;2023-10-13T09:09:26;17.10;99.90
54260;DHT22;40172;53.022;7.012;2023-10-13T09:11:55;16.90;99.90
54260;DHT22;40172;53.022;7.012;2023-10-13T09:14:35;17.20;99.90
54260;DHT22;40172;53.022;7.012;2023-10-13T09:17:04;17.20;99.90
54260;DHT22;40172;53.022;7.012;2023-10-13T09:19:59;17.80;99.90
54260;DHT22;40172;53.022;7.012;2023-10-13T09:22:25;17.20;99.90
54260;DHT22;40172;53.022;7.012;2023-10-13T09:25:01;17.00;99.90
54260;DHT22;40172;53.022;7.012;2023-10-13T09:27:29;17.50;99.90
54260;DHT22;40172;53.022;7.012;2023-10-13T09:30:01;17.80;99.90
54260;DHT22;40172;53.022;7.012;2023-10-13T09:32:46;17.50;99.90
54260;DHT22;40172;53.022;7.012;2023-10-13T09:35:20;16.80;99.90
54260;DHT22;40172;53.022;7.012;2023-10-13T09:37:52;17.60;99.90
54260;DHT22;40172;53.022;7.012;2023-10-13T09:40:21;17.70;99.90
54260;DHT22;40172;53.022;7.012;2023-10-13T09:42:54;17.50;99.90
54260;DHT22;40172;53.022;7.012;2023-10-13T09:45:28;17.90;99.90
54260;DHT22;40172;53.022;7.012;2023-10-13T09:48:01;17.90;99.90
54260;DHT22;40172;53.022;7.012;2023-10-13T09:50:36;17.80;99.90
54260;DHT22;40172;53.022;7.012;2023-10-13T09:53:03;17.90;99.90
54260;DHT22;40172;53.022;7.012;2023-10-13T09:55:33;18.00;99.90
54260;DHT22;40172;53.022;7.012;2023-10-13T09:58:02;17.70;99.90
54260;DHT22;40172;53.022;7.012;2023-10-13T10:00:35;18.30;99.90
54260;DHT22;40172;53.022;7.012;2023-10-13T10:03:11;18.20;99.90
54260;DHT22;40172;53.022;7.012;2023-10-13T10:05:54;19.00;99.90
54260;DHT22;40172;53.022;7.012;2023-10-13T10:08:25;18.30;99.90
54260;DHT22;40172;53.022;7.012;2023-10-13T10:11:04;18.30;99.90
54260;DHT22;40172;53.022;7.012;2023-10-13T10:16:13;18.50;99.90
54260;DHT22;40172;53.022;7.012;2023-10-13T10:18:45;18.70;99.90
54260;DHT22;40172;53.022;7.012;2023-10-13T10:21:10;18.70;99.90
54260;DHT22;40172;53.022;7.012;2023-10-13T10:23:36;18.70;99.90
54260;DHT22;40172;53.022;7.012;2023-10-13T10:26:14;18.50;99.90
54260;DHT22;40172;53.022;7.012;2023-10-13T10:28:42;18.70;99.90
54260;DHT22;40172;53.022;7.012;2023-10-13T10:31:08;18.60;99.90
54260;DHT22;40172;53.022;7.012;2023-10-13T10:33:44;18.90;99.90
54260;DHT22;40172;53.022;7.012;2023-10-13T10:36:11;20.40;99.90
54260;DHT22;40172;53.022;7.012;2023-10-13T10:38:52;19.20;99.90
54260;DHT22;40172;53.022;7.012;2023-10-13T10:41:24;19.20;99.90
54260;DHT22;40172;53.022;7.012;2023-10-13T10:43:51;19.40;99.90
54260;DHT22;40172;53.022;7.012;2023-10-13T10:46:27;19.20;99.90
54260;DHT22;40172;53.022;7.012;2023-10-13T10:48:53;19.40;99.90
54260;DHT22;40172;53.022;7.012;2023-10-13T10:51:27;20.00;99.90
54260;DHT22;40172;53.022;7.012;2023-10-13T10:53:56;19.60;99.90
54260;DHT22;40172;53.022;7.012;2023-10-13T10:56:23;19.90;99.90
54260;DHT22;40172;53.022;7.012;2023-10-13T10:59:02;19.40;99.90
54260;DHT22;40172;53.022;7.012;2023-10-13T11:01:30;20.00;99.90
54260;DHT22;40172;53.022;7.012;2023-10-13T11:04:12;20.90;99.90
54260;DHT22;40172;53.022;7.012;2023-10-13T11:06:47;20.00;99.90
54260;DHT22;40172;53.022;7.012;2023-10-13T11:09:13;20.00;99.90
54260;DHT22;40172;53.022;7.012;2023-10-13T11:11:48;20.10;99.90
54260;DHT22;40172;53.022;7.012;2023-10-13T11:14:22;20.00;99.90
54260;DHT22;40172;53.022;7.012;2023-10-13T11:16:49;20.00;99.90
54260;DHT22;40172;53.022;7.012;2023-10-13T11:19:21;21.20;99.90
54260;DHT22;40172;53.022;7.012;2023-10-13T11:21:53;19.60;99.90
54260;DHT22;40172;53.022;7.012;2023-10-13T11:24:19;20.00;99.90
54260;DHT22;40172;53.022;7.012;2023-10-13T11:26:47;19.70;99.90
54260;DHT22;40172;53.022;7.012;2023-10-13T11:29:16;20.50;99.90
54260;DHT22;40172;53.022;7.012;2023-10-13T11:31:45;20.00;99.90
54260;DHT22;40172;53.022;7.012;2023-10-13T11:34:11;19.40;99.90
54260;DHT22;40172;53.022;7.012;2023-10-13T11:36:37;21.20;99.90
54260;DHT22;40172;53.022;7.012;2023-10-13T11:39:02;20.00;99.90
54260;DHT22;40172;53.022;7.012;2023-10-13T11:41:32;20.00;99.90
54260;DHT22;40172;53.022;7.012;2023-10-13T11:43:59;20.20;99.90
54260;DHT22;40172;53.022;7.012;2023-10-13T11:46:45;20.00;99.90
54260;DHT22;40172;53.022;7.012;2023-10-13T11:49:16;19.80;99.90
54260;DHT22;40172;53.022;7.012;2023-10-13T11:51:48;20.70;99.90
54260;DHT22;40172;53.022;7.012;2023-10-13T11:54:15;19.80;99.90
54260;DHT22;40172;53.022;7.012;2023-10-13T11:56:41;19.80;99.90
54260;DHT22;40172;53.022;7.012;2023-10-13T11:59:07;19.60;99.90
54260;DHT22;40172;53.022;7.012;2023-10-13T12:01:42;20.70;99.90
54260;DHT22;40172;53.022;7.012;2023-10-13T12:04:26;20.00;99.90
54260;DHT22;40172;53.022;7.012;2023-10-13T12:07:05;19.80;99.90
54260;DHT22;40172;53.022;7.012;2023-10-13T12:09:47;19.90;99.90
54260;DHT22;40172;53.022;7.012;2023-10-13T12:12:23;20.00;99.90
54260;DHT22;40172;53.022;7.012;2023-10-13T12:14:49;20.00;99.90
54260;DHT22;40172;53.022;7.012;2023-10-13T12:17:21;19.80;99.90
54260;DHT22;40172;53.022;7.012;2023-10-13T12:19:54;19.60;99.90
54260;DHT22;40172;53.022;7.012;2023-10-13T12:22:20;19.90;99.90
54260;DHT22;40172;53.022;7.012;2023-10-13T12:25:04;19.40;99.90
54260;DHT22;40172;53.022;7.012;2023-10-13T12:27:44;19.80;99.90
54260;DHT22;40172;53.022;7.012;2023-10-13T12:30:14;19.70;99.90
54260;DHT22;40172;53.022;7.012;2023-10-13T12:32:42;19.50;99.90
54260;DHT22;40172;53.022;7.012;2023-10-13T12:35:19;20.40;99.90
54260;DHT22;40172;53.022;7.012;2023-10-13T12:38:02;19.60;99.90
54260;DHT22;40172;53.022;7.012;2023-10-13T12:40:31;20.00;99.90
54260;DHT22;40172;53.022;7.012;2023-10-13T12:43:15;19.60;99.90
54260;DHT22;40172;53.022;7.012;2023-10-13T12:45:59;21.50;99.90
54260;DHT22;40172;53.022;7.012;2023-10-13T12:48:43;21.00;99.90
54260;DHT22;40172;53.022;7.012;2023-10-13T12:51:29;20.90;99.90
54260;DHT22;40172;53.022;7.012;2023-10-13T12:53:58;19.70;99.90
54260;DHT22;40172;53.022;7.012;2023-10-13T12:56:30;20.60;99.90
54260;DHT22;40172;53.022;7.012;2023-10-13T12:58:56;19.50;99.90
54260;DHT22;40172;53.022;7.012;2023-10-13T13:01:22;19.70;99.90
54260;DHT22;40172;53.022;7.012;2023-10-13T13:03:49;19.00;99.90
54260;DHT22;40172;53.022;7.012;2023-10-13T13:06:18;19.60;99.90
54260;DHT22;40172;53.022;7.012;2023-10-13T13:08:51;19.90;99.90
54260;DHT22;40172;53.022;7.012;2023-10-13T13:11:16;19.80;99.90
54260;DHT22;40172;53.022;7.012;2023-10-13T13:13:42;20.00;99.90
54260;DHT22;40172;53.022;7.012;2023-10-13T13:16:07;20.10;99.90
54260;DHT22;40172;53.022;7.012;2023-10-13T13:18:33;19.60;99.90
54260;DHT22;40172;53.022;7.012;2023-10-13T13:20:59;19.70;99.90
54260;DHT22;40172;53.022;7.012;2023-10-13T13:23:27;19.80;99.90
54260;DHT22;40172;53.022;7.012;2023-10-13T13:25:53;19.90;99.90
54260;DHT22;40172;53.022;7.012;2023-10-13T13:28:18;19.80;99.90
54260;DHT22;40172;53.022;7.012;2023-10-13T13:30:44;19.90;99.90
54260;DHT22;40172;53.022;7.012;2023-10-13T13:33:11;20.00;99.90
54260;DHT22;40172;53.022;7.012;2023-10-13T13:35:40;19.60;99.90
54260;DHT22;40172;53.022;7.012;2023-10-13T13:38:08;20.30;99.90
54260;DHT22;40172;53.022;7.012;2023-10-13T13:40:42;19.70;99.90
54260;DHT22;40172;53.022;7.012;2023-10-13T13:43:09;20.90;99.90
54260;DHT22;40172;53.022;7.012;2023-10-13T13:45:44;19.90;99.90
54260;DHT22;40172;53.022;7.012;2023-10-13T13:48:10;22.10;99.90
54260;DHT22;40172;53.022;7.012;2023-10-13T13:50:40;19.90;99.90
54260;DHT22;40172;53.022;7.012;2023-10-13T13:53:06;20.00;99.90
54260;DHT22;40172;53.022;7.012;2023-10-13T13:55:35;19.60;99.90
54260;DHT22;40172;53.022;7.012;2023-10-13T13:58:00;19.80;99.90
54260;DHT22;40172;53.022;7.012;2023-10-13T14:00:26;19.90;99.90
54260;DHT22;40172;53.022;7.012;2023-10-13T14:03:08;19.80;99.90
54260;DHT22;40172;53.022;7.012;2023-10-13T14:05:46;19.30;99.90
54260;DHT22;40172;53.022;7.012;2023-10-13T14:08:14;19.60;99.90
54260;DHT22;40172;53.022;7.012;2023-10-13T14:10:41;19.40;99.90
54260;DHT22;40172;53.022;7.012;2023-10-13T14:13:25;19.40;99.90
54260;DHT22;40172;53.022;7.012;2023-10-13T14:16:11;19.20;99.90
54260;DHT22;40172;53.022;7.012;2023-10-13T14:18:48;19.10;99.90
54260;DHT22;40172;53.022;7.012;2023-10-13T14:21:14;19.10;99.90
54260;DHT22;40172;53.022;7.012;2023-10-13T14:23:46;18.90;99.90
54260;DHT22;40172;53.022;7.012;2023-10-13T14:26:16;19.20;99.90
54260;DHT22;40172;53.022;7.012;2023-10-13T14:28:51;18.90;99.90
54260;DHT22;40172;53.022;7.012;2023-10-13T14:31:33;18.70;99.90
54260;DHT22;40172;53.022;7.012;2023-10-13T14:34:01;19.20;99.90
54260;DHT22;40172;53.022;7.012;2023-10-13T14:36:28;18.70;99.90
54260;DHT22;40172;53.022;7.012;2023-10-13T14:38:55;18.80;99.90
54260;DHT22;40172;53.022;7.012;2023-10-13T14:41:23;18.80;99.90
54260;DHT22;40172;53.022;7.012;2023-10-13T14:43:49;18.70;99.90
54260;DHT22;40172;53.022;7.012;2023-10-13T14:46:15;18.60;99.90
54260;DHT22;40172;53.022;7.012;2023-10-13T14:48:44;18.80;99.90
54260;DHT22;40172;53.022;7.012;2023-10-13T14:51:12;18.90;99.90
54260;DHT22;40172;53.022;7.012;2023-10-13T14:53:41;19.00;99.90
54260;DHT22;40172;53.022;7.012;2023-10-13T14:56:12;19.20;99.90
54260;DHT22;40172;53.022;7.012;2023-10-13T14:58:38;18.70;99.90
54260;DHT22;40172;53.022;7.012;2023-10-13T15:01:21;19.00;99.90
54260;DHT22;40172;53.022;7.012;2023-10-13T15:03:48;18.90;99.90
54260;DHT22;40172;53.022;7.012;2023-10-13T15:06:15;19.20;99.90
54260;DHT22;40172;53.022;7.012;2023-10-13T15:08:43;18.90;99.90
54260;DHT22;40172;53.022;7.012;2023-10-13T15:11:11;19.10;99.90
54260;DHT22;40172;53.022;7.012;2023-10-13T15:13:39;20.80;99.90
54260;DHT22;40172;53.022;7.012;2023-10-13T15:16:12;18.70;99.90
54260;DHT22;40172;53.022;7.012;2023-10-13T15:18:39;18.70;99.90
54260;DHT22;40172;53.022;7.012;2023-10-13T15:21:05;19.00;99.90
54260;DHT22;40172;53.022;7.012;2023-10-13T15:23:34;20.40;99.90
54260;DHT22;40172;53.022;7.012;2023-10-13T15:26:10;18.20;99.90
54260;DHT22;40172;53.022;7.012;2023-10-13T15:28:36;18.60;99.90
54260;DHT22;40172;53.022;7.012;2023-10-13T15:31:03;18.70;99.90
54260;DHT22;40172;53.022;7.012;2023-10-13T15:33:49;17.80;99.90
54260;DHT22;40172;53.022;7.012;2023-10-13T15:36:17;18.00;99.90
54260;DHT22;40172;53.022;7.012;2023-10-13T15:38:45;17.50;99.90
54260;DHT22;40172;53.022;7.012;2023-10-13T15:41:12;17.80;99.90
54260;DHT22;40172;53.022;7.012;2023-10-13T15:43:37;17.90;99.90
54260;DHT22;40172;53.022;7.012;2023-10-13T15:46:15;18.00;99.90
54260;DHT22;40172;53.022;7.012;2023-10-13T15:48:40;18.00;99.90
54260;DHT22;40172;53.022;7.012;2023-10-13T15:51:10;17.70;99.90
54260;DHT22;40172;53.022;7.012;2023-10-13T15:53:35;17.90;99.90
54260;DHT22;40172;53.022;7.012;2023-10-13T15:56:03;17.50;99.90
54260;DHT22;40172;53.022;7.012;2023-10-13T15:58:31;17.90;99.90
54260;DHT22;40172;53.022;7.012;2023-10-13T16:00:57;17.50;99.90
54260;DHT22;40172;53.022;7.012;2023-10-13T16:03:24;17.50;99.90
54260;DHT22;40172;53.022;7.012;2023-10-13T16:05:52;18.10;99.90
54260;DHT22;40172;53.022;7.012;2023-10-13T16:08:17;17.70;99.90
54260;DHT22;40172;53.022;7.012;2023-10-13T16:10:43;17.50;99.90
54260;DHT22;40172;53.022;7.012;2023-10-13T16:13:09;17.90;99.90
54260;DHT22;40172;53.022;7.012;2023-10-13T16:15:41;17.50;99.90
54260;DHT22;40172;53.022;7.012;2023-10-13T16:18:08;17.70;99.90
54260;DHT22;40172;53.022;7.012;2023-10-13T16:20:35;17.90;99.90